SAS1642 EKCH-EVRA
Flight info
| Callsign | SAS1642 |
|---|---|
| Flight time | 1h 6m |
| Altitude | 31000 |
| Route | KEMAX Z490 KOTAM DCT VEDEN DCT ORVIX |
| Aircraft | MD82/M-SDFGIRWY/S |
Departure
| Time | 2026-05-04 19:37 |
|---|---|
| Airport | Copenhagen Kastrup Airport (EKCH) |
Arrival
| Time | 2026-05-04 20:43 |
|---|---|
| Airport | Riga International Airport (EVRA) |
| Time | Latitude | Longitude | Altitude | Speed | Heading |
|---|---|---|---|---|---|
| 2026-05-04 18:55 | 55.62798 | 12.64343 | 25 ft | 0 kts | 282° |
| 2026-05-04 19:23 | 55.62798 | 12.64344 | 24 ft | 1 kts | 282° |
| 2026-05-04 19:23 | 55.62794 | 12.64375 | 26 ft | 4 kts | 296° |
| 2026-05-04 19:23 | 55.62783 | 12.64391 | 26 ft | 4 kts | 1° |
| 2026-05-04 19:23 | 55.62758 | 12.64384 | 26 ft | 4 kts | 16° |
| 2026-05-04 19:24 | 55.62734 | 12.64366 | 29 ft | 4 kts | 29° |
| 2026-05-04 19:24 | 55.62715 | 12.64348 | 29 ft | 3 kts | 26° |
| 2026-05-04 19:24 | 55.62691 | 12.64329 | 28 ft | 4 kts | 21° |
| 2026-05-04 19:24 | 55.62671 | 12.64315 | 28 ft | 3 kts | 21° |
| 2026-05-04 19:25 | 55.62646 | 12.64298 | 29 ft | 4 kts | 24° |
| 2026-05-04 19:25 | 55.62624 | 12.64277 | 30 ft | 2 kts | 33° |
| 2026-05-04 19:25 | 55.62605 | 12.64255 | 26 ft | 4 kts | 33° |
| 2026-05-04 19:25 | 55.62583 | 12.64229 | 29 ft | 4 kts | 33° |
| 2026-05-04 19:26 | 55.62562 | 12.64204 | 29 ft | 4 kts | 39° |
| 2026-05-04 19:26 | 55.62548 | 12.64172 | 29 ft | 4 kts | 78° |
| 2026-05-04 19:26 | 55.62551 | 12.64134 | 28 ft | 4 kts | 122° |
| 2026-05-04 19:26 | 55.62565 | 12.64096 | 29 ft | 4 kts | 123° |
| 2026-05-04 19:27 | 55.62579 | 12.64057 | 28 ft | 4 kts | 123° |
| 2026-05-04 19:27 | 55.62583 | 12.64048 | 28 ft | 0 kts | 123° |
| 2026-05-04 19:30 | 55.62582 | 12.64049 | 28 ft | 0 kts | 123° |
| 2026-05-04 19:30 | 55.62564 | 12.64097 | 29 ft | 8 kts | 124° |
| 2026-05-04 19:30 | 55.62529 | 12.64190 | 26 ft | 10 kts | 123° |
| 2026-05-04 19:30 | 55.62487 | 12.64299 | 24 ft | 12 kts | 126° |
| 2026-05-04 19:31 | 55.62436 | 12.64415 | 24 ft | 9 kts | 134° |
| 2026-05-04 19:31 | 55.62379 | 12.64440 | 26 ft | 9 kts | 188° |
| 2026-05-04 19:31 | 55.62357 | 12.64431 | 24 ft | 0 kts | 193° |
| 2026-05-04 19:32 | 55.62344 | 12.64425 | 24 ft | 5 kts | 194° |
| 2026-05-04 19:33 | 55.62267 | 12.64388 | 23 ft | 17 kts | 195° |
| 2026-05-04 19:33 | 55.62149 | 12.64301 | 25 ft | 18 kts | 206° |
| 2026-05-04 19:33 | 55.62034 | 12.64205 | 24 ft | 19 kts | 205° |
| 2026-05-04 19:33 | 55.61915 | 12.64105 | 26 ft | 19 kts | 205° |
| 2026-05-04 19:34 | 55.61806 | 12.63970 | 25 ft | 18 kts | 216° |
| 2026-05-04 19:34 | 55.61708 | 12.63943 | 28 ft | 8 kts | 176° |
| 2026-05-04 19:34 | 55.61687 | 12.63945 | 25 ft | 1 kts | 176° |
| 2026-05-04 19:34 | 55.61678 | 12.63946 | 26 ft | 0 kts | 176° |
| 2026-05-04 19:35 | 55.61674 | 12.63947 | 26 ft | 1 kts | 176° |
| 2026-05-04 19:36 | 55.61635 | 12.63951 | 28 ft | 9 kts | 176° |
| 2026-05-04 19:36 | 55.61573 | 12.63954 | 26 ft | 10 kts | 187° |
| 2026-05-04 19:36 | 55.61508 | 12.63888 | 26 ft | 14 kts | 222° |
| 2026-05-04 19:36 | 55.61347 | 12.63638 | 27 ft | 58 kts | 221° |
| 2026-05-04 19:37 | 55.60871 | 12.62896 | 25 ft | 124 kts | 221° |
| 2026-05-04 19:37 | 55.60068 | 12.61691 | 178 ft | 167 kts | 221° |
| 2026-05-04 19:37 | 55.59190 | 12.60409 | 1090 ft | 162 kts | 223° |
| 2026-05-04 19:37 | 55.58299 | 12.59132 | 1794 ft | 173 kts | 223° |
| 2026-05-04 19:38 | 55.57387 | 12.57751 | 2534 ft | 176 kts | 224° |
| 2026-05-04 19:38 | 55.56422 | 12.56323 | 3145 ft | 188 kts | 214° |
| 2026-05-04 19:38 | 55.55147 | 12.55281 | 3545 ft | 217 kts | 204° |
| 2026-05-04 19:38 | 55.53648 | 12.54273 | 3949 ft | 243 kts | 203° |
| 2026-05-04 19:39 | 55.52004 | 12.53206 | 4525 ft | 260 kts | 202° |
| 2026-05-04 19:39 | 55.50285 | 12.52141 | 5431 ft | 262 kts | 202° |
| 2026-05-04 19:39 | 55.48551 | 12.51112 | 6361 ft | 264 kts | 202° |
| 2026-05-04 19:39 | 55.46794 | 12.50082 | 7226 ft | 267 kts | 202° |
| 2026-05-04 19:40 | 55.44965 | 12.49346 | 8060 ft | 277 kts | 184° |
| 2026-05-04 19:40 | 55.43083 | 12.50153 | 8878 ft | 291 kts | 154° |
| 2026-05-04 19:40 | 55.41545 | 12.52547 | 9680 ft | 303 kts | 126° |
| 2026-05-04 19:40 | 55.40675 | 12.56003 | 10238 ft | 319 kts | 105° |
| 2026-05-04 19:41 | 55.40185 | 12.59962 | 10439 ft | 343 kts | 102° |
| 2026-05-04 19:41 | 55.40022 | 12.64271 | 10645 ft | 364 kts | 82° |
| 2026-05-04 19:41 | 55.40791 | 12.68554 | 11142 ft | 370 kts | 58° |
| 2026-05-04 19:41 | 55.42378 | 12.72001 | 11789 ft | 368 kts | 36° |
| 2026-05-04 19:42 | 55.44551 | 12.74303 | 12487 ft | 364 kts | 20° |
| 2026-05-04 19:42 | 55.46892 | 12.76085 | 13122 ft | 369 kts | 19° |
| 2026-05-04 19:42 | 55.49256 | 12.77977 | 13755 ft | 375 kts | 21° |
| 2026-05-04 19:42 | 55.51610 | 12.80044 | 14364 ft | 379 kts | 23° |
| 2026-05-04 19:43 | 55.53952 | 12.82265 | 15002 ft | 383 kts | 25° |
| 2026-05-04 19:43 | 55.56242 | 12.84570 | 15654 ft | 385 kts | 26° |
| 2026-05-04 19:43 | 55.58573 | 12.87008 | 16259 ft | 389 kts | 27° |
| 2026-05-04 19:43 | 55.60900 | 12.89493 | 16843 ft | 393 kts | 27° |
| 2026-05-04 19:44 | 55.63248 | 12.92025 | 17484 ft | 396 kts | 27° |
| 2026-05-04 19:44 | 55.65575 | 12.94544 | 18120 ft | 397 kts | 27° |
| 2026-05-04 19:44 | 55.67962 | 12.97119 | 18626 ft | 401 kts | 27° |
| 2026-05-04 19:44 | 55.70362 | 12.99692 | 19104 ft | 405 kts | 27° |
| 2026-05-04 19:45 | 55.72789 | 13.02284 | 19609 ft | 408 kts | 27° |
| 2026-05-04 19:45 | 55.75227 | 13.04886 | 20150 ft | 411 kts | 27° |
| 2026-05-04 19:45 | 55.76850 | 13.06619 | 20514 ft | 412 kts | 27° |
| 2026-05-04 19:45 | 55.80126 | 13.10140 | 21193 ft | 417 kts | 27° |
| 2026-05-04 19:46 | 55.82613 | 13.12827 | 21694 ft | 420 kts | 27° |
| 2026-05-04 19:46 | 55.84278 | 13.14628 | 22051 ft | 422 kts | 28° |
| 2026-05-04 19:46 | 55.86801 | 13.17356 | 22587 ft | 424 kts | 28° |
| 2026-05-04 19:46 | 55.89330 | 13.20097 | 23140 ft | 428 kts | 27° |
| 2026-05-04 19:47 | 55.91886 | 13.22862 | 23593 ft | 431 kts | 27° |
| 2026-05-04 19:47 | 55.94474 | 13.25653 | 24014 ft | 434 kts | 27° |
| 2026-05-04 19:47 | 55.97035 | 13.28416 | 24470 ft | 436 kts | 27° |
| 2026-05-04 19:47 | 55.99640 | 13.31230 | 24920 ft | 438 kts | 27° |
| 2026-05-04 19:48 | 56.02254 | 13.34060 | 25341 ft | 441 kts | 27° |
| 2026-05-04 19:48 | 56.04888 | 13.36917 | 25742 ft | 444 kts | 27° |
| 2026-05-04 19:48 | 56.07536 | 13.39795 | 26167 ft | 447 kts | 28° |
| 2026-05-04 19:48 | 56.10027 | 13.43172 | 26583 ft | 455 kts | 44° |
| 2026-05-04 19:49 | 56.11907 | 13.47771 | 26991 ft | 463 kts | 62° |
| 2026-05-04 19:49 | 56.12982 | 13.53172 | 27356 ft | 469 kts | 79° |
| 2026-05-04 19:49 | 56.13235 | 13.59008 | 27758 ft | 471 kts | 91° |
| 2026-05-04 19:49 | 56.13127 | 13.64920 | 28183 ft | 473 kts | 93° |
| 2026-05-04 19:50 | 56.12998 | 13.70766 | 28552 ft | 476 kts | 92° |
| 2026-05-04 19:50 | 56.12907 | 13.76739 | 29004 ft | 477 kts | 91° |
| 2026-05-04 19:50 | 56.12871 | 13.82691 | 29655 ft | 474 kts | 90° |
| 2026-05-04 19:50 | 56.12884 | 13.88522 | 30280 ft | 470 kts | 90° |
| 2026-05-04 19:51 | 56.12928 | 13.94398 | 30615 ft | 472 kts | 89° |
| 2026-05-04 19:51 | 56.12988 | 14.00325 | 30778 ft | 476 kts | 89° |
| 2026-05-04 19:51 | 56.13138 | 14.06218 | 30857 ft | 480 kts | 81° |
| 2026-05-04 19:52 | 56.14845 | 14.17965 | 30917 ft | 489 kts | 72° |
| 2026-05-04 19:52 | 56.16603 | 14.29695 | 30925 ft | 487 kts | 75° |
| 2026-05-04 19:53 | 56.18102 | 14.41540 | 30923 ft | 486 kts | 77° |
| 2026-05-04 19:53 | 56.19521 | 14.53390 | 30923 ft | 486 kts | 77° |
| 2026-05-04 19:54 | 56.20961 | 14.65261 | 30919 ft | 486 kts | 77° |
| 2026-05-04 19:54 | 56.22405 | 14.76966 | 30920 ft | 487 kts | 77° |
| 2026-05-04 19:55 | 56.23821 | 14.88883 | 30920 ft | 488 kts | 77° |
| 2026-05-04 19:55 | 56.25208 | 15.00821 | 30914 ft | 488 kts | 77° |
| 2026-05-04 19:56 | 56.26613 | 15.12811 | 30915 ft | 488 kts | 77° |
| 2026-05-04 19:56 | 56.28020 | 15.24734 | 30914 ft | 487 kts | 77° |
| 2026-05-04 19:57 | 56.29421 | 15.36599 | 30914 ft | 486 kts | 77° |
| 2026-05-04 19:57 | 56.30820 | 15.48475 | 30912 ft | 487 kts | 77° |
| 2026-05-04 19:58 | 56.32181 | 15.60469 | 30909 ft | 487 kts | 78° |
| 2026-05-04 19:58 | 56.33496 | 15.72424 | 30898 ft | 488 kts | 78° |
| 2026-05-04 19:59 | 56.34831 | 15.84440 | 30898 ft | 490 kts | 78° |
| 2026-05-04 19:59 | 56.36181 | 15.96503 | 30905 ft | 491 kts | 78° |
| 2026-05-04 20:00 | 56.37504 | 16.08289 | 30893 ft | 489 kts | 78° |
| 2026-05-04 20:00 | 56.38822 | 16.20066 | 30892 ft | 488 kts | 78° |
| 2026-05-04 20:01 | 56.40091 | 16.31586 | 30892 ft | 489 kts | 78° |
| 2026-05-04 20:01 | 56.41370 | 16.43690 | 30882 ft | 489 kts | 78° |
| 2026-05-04 20:02 | 56.42627 | 16.55717 | 30881 ft | 489 kts | 78° |
| 2026-05-04 20:02 | 56.43895 | 16.67784 | 30881 ft | 489 kts | 78° |
| 2026-05-04 20:03 | 56.45169 | 16.79855 | 30880 ft | 489 kts | 78° |
| 2026-05-04 20:03 | 56.46443 | 16.91927 | 30872 ft | 489 kts | 78° |
| 2026-05-04 20:04 | 56.47691 | 17.04021 | 30870 ft | 490 kts | 79° |
| 2026-05-04 20:04 | 56.48876 | 17.16139 | 30872 ft | 490 kts | 79° |
| 2026-05-04 20:05 | 56.50068 | 17.28282 | 30863 ft | 490 kts | 79° |
| 2026-05-04 20:05 | 56.51275 | 17.40414 | 30861 ft | 490 kts | 79° |
| 2026-05-04 20:06 | 56.52490 | 17.52580 | 30859 ft | 490 kts | 79° |
| 2026-05-04 20:06 | 56.53696 | 17.64698 | 30861 ft | 490 kts | 79° |
| 2026-05-04 20:07 | 56.54887 | 17.76894 | 30859 ft | 490 kts | 79° |
| 2026-05-04 20:07 | 56.56010 | 17.89098 | 30858 ft | 490 kts | 80° |
| 2026-05-04 20:08 | 56.57127 | 18.01240 | 30857 ft | 490 kts | 79° |
| 2026-05-04 20:08 | 56.58263 | 18.13419 | 30858 ft | 490 kts | 79° |
| 2026-05-04 20:09 | 56.59406 | 18.25619 | 30861 ft | 491 kts | 79° |
| 2026-05-04 20:09 | 56.60549 | 18.37848 | 30853 ft | 491 kts | 79° |
| 2026-05-04 20:10 | 56.61677 | 18.50106 | 30853 ft | 491 kts | 80° |
| 2026-05-04 20:10 | 56.62725 | 18.62274 | 30856 ft | 491 kts | 80° |
| 2026-05-04 20:11 | 56.63779 | 18.74571 | 30849 ft | 491 kts | 80° |
| 2026-05-04 20:11 | 56.64847 | 18.86846 | 30847 ft | 491 kts | 80° |
| 2026-05-04 20:12 | 56.65915 | 18.99040 | 30852 ft | 492 kts | 80° |
| 2026-05-04 20:12 | 56.66990 | 19.11344 | 30852 ft | 492 kts | 80° |
| 2026-05-04 20:13 | 56.68051 | 19.23641 | 30842 ft | 492 kts | 81° |
| 2026-05-04 20:13 | 56.69040 | 19.35978 | 30867 ft | 492 kts | 81° |
| 2026-05-04 20:14 | 56.70014 | 19.48266 | 30850 ft | 493 kts | 81° |
| 2026-05-04 20:14 | 56.71012 | 19.60612 | 30841 ft | 493 kts | 81° |
| 2026-05-04 20:15 | 56.72018 | 19.72971 | 30847 ft | 493 kts | 81° |
| 2026-05-04 20:15 | 56.73015 | 19.85235 | 30847 ft | 494 kts | 81° |
| 2026-05-04 20:16 | 56.74008 | 19.97598 | 30851 ft | 494 kts | 81° |
| 2026-05-04 20:16 | 56.74934 | 20.10044 | 30847 ft | 494 kts | 82° |
| 2026-05-04 20:17 | 56.75836 | 20.22390 | 30849 ft | 494 kts | 82° |
| 2026-05-04 20:17 | 56.76765 | 20.34846 | 30848 ft | 497 kts | 81° |
| 2026-05-04 20:18 | 56.77704 | 20.47342 | 30849 ft | 498 kts | 81° |
| 2026-05-04 20:18 | 56.78637 | 20.59824 | 30857 ft | 495 kts | 81° |
| 2026-05-04 20:19 | 56.79559 | 20.72222 | 30855 ft | 492 kts | 82° |
| 2026-05-04 20:19 | 56.80413 | 20.84691 | 30861 ft | 493 kts | 82° |
| 2026-05-04 20:20 | 56.81244 | 20.97075 | 30857 ft | 498 kts | 82° |
| 2026-05-04 20:20 | 56.82105 | 21.09707 | 30860 ft | 499 kts | 82° |
| 2026-05-04 20:21 | 56.82964 | 21.22182 | 30639 ft | 491 kts | 82° |
| 2026-05-04 20:21 | 56.83385 | 21.28293 | 30173 ft | 484 kts | 82° |
| 2026-05-04 20:21 | 56.84223 | 21.40464 | 28747 ft | 479 kts | 82° |
| 2026-05-04 20:22 | 56.84629 | 21.46409 | 27866 ft | 476 kts | 83° |
| 2026-05-04 20:22 | 56.85016 | 21.52441 | 26944 ft | 475 kts | 83° |
| 2026-05-04 20:22 | 56.85382 | 21.58390 | 25951 ft | 475 kts | 84° |
| 2026-05-04 20:22 | 56.85752 | 21.64427 | 24959 ft | 477 kts | 84° |
| 2026-05-04 20:23 | 56.86122 | 21.70491 | 23981 ft | 479 kts | 84° |
| 2026-05-04 20:23 | 56.86487 | 21.76470 | 22951 ft | 474 kts | 84° |
| 2026-05-04 20:23 | 56.86850 | 21.82354 | 21884 ft | 461 kts | 84° |
| 2026-05-04 20:23 | 56.87207 | 21.88101 | 20891 ft | 448 kts | 84° |
| 2026-05-04 20:24 | 56.87558 | 21.93730 | 19936 ft | 437 kts | 84° |
| 2026-05-04 20:24 | 56.87897 | 21.99143 | 19036 ft | 426 kts | 84° |
| 2026-05-04 20:24 | 56.88232 | 22.04481 | 18145 ft | 417 kts | 84° |
| 2026-05-04 20:24 | 56.88557 | 22.09670 | 17174 ft | 408 kts | 84° |
| 2026-05-04 20:25 | 56.88878 | 22.14785 | 16281 ft | 399 kts | 84° |
| 2026-05-04 20:25 | 56.89188 | 22.19736 | 15430 ft | 390 kts | 84° |
| 2026-05-04 20:25 | 56.89505 | 22.24675 | 14830 ft | 385 kts | 83° |
| 2026-05-04 20:25 | 56.89844 | 22.29430 | 14738 ft | 366 kts | 82° |
| 2026-05-04 20:26 | 56.90195 | 22.33918 | 14656 ft | 361 kts | 82° |
| 2026-05-04 20:26 | 56.90606 | 22.38646 | 14593 ft | 385 kts | 79° |
| 2026-05-04 20:26 | 56.91185 | 22.43486 | 14216 ft | 394 kts | 76° |
| 2026-05-04 20:26 | 56.91863 | 22.48290 | 13696 ft | 388 kts | 74° |
| 2026-05-04 20:27 | 56.92604 | 22.53038 | 13081 ft | 383 kts | 73° |
| 2026-05-04 20:27 | 56.93370 | 22.57685 | 12472 ft | 378 kts | 72° |
| 2026-05-04 20:27 | 56.94138 | 22.62225 | 11883 ft | 374 kts | 72° |
| 2026-05-04 20:27 | 56.94911 | 22.66761 | 11319 ft | 369 kts | 72° |
| 2026-05-04 20:28 | 56.95667 | 22.71219 | 10774 ft | 364 kts | 72° |
| 2026-05-04 20:28 | 56.96407 | 22.75622 | 10354 ft | 356 kts | 72° |
| 2026-05-04 20:28 | 56.97095 | 22.79824 | 10268 ft | 338 kts | 72° |
| 2026-05-04 20:28 | 56.97750 | 22.83860 | 10192 ft | 321 kts | 72° |
| 2026-05-04 20:29 | 56.98375 | 22.87725 | 10002 ft | 312 kts | 72° |
| 2026-05-04 20:29 | 56.98985 | 22.91533 | 9755 ft | 310 kts | 72° |
| 2026-05-04 20:29 | 56.99581 | 22.95282 | 9505 ft | 309 kts | 72° |
| 2026-05-04 20:29 | 57.00187 | 22.99076 | 9214 ft | 307 kts | 72° |
| 2026-05-04 20:30 | 57.00785 | 23.02807 | 8955 ft | 306 kts | 72° |
| 2026-05-04 20:30 | 57.01382 | 23.06539 | 8674 ft | 303 kts | 72° |
| 2026-05-04 20:30 | 57.01972 | 23.10245 | 8427 ft | 301 kts | 72° |
| 2026-05-04 20:30 | 57.02552 | 23.13890 | 8177 ft | 299 kts | 72° |
| 2026-05-04 20:31 | 57.03244 | 23.17483 | 7919 ft | 296 kts | 63° |
| 2026-05-04 20:31 | 57.04167 | 23.20862 | 7668 ft | 294 kts | 59° |
| 2026-05-04 20:31 | 57.05119 | 23.24124 | 7511 ft | 290 kts | 59° |
| 2026-05-04 20:31 | 57.06086 | 23.27399 | 7332 ft | 292 kts | 59° |
| 2026-05-04 20:32 | 57.07060 | 23.30666 | 7078 ft | 288 kts | 59° |
| 2026-05-04 20:32 | 57.07998 | 23.33804 | 6825 ft | 281 kts | 58° |
| 2026-05-04 20:32 | 57.08882 | 23.36761 | 6604 ft | 276 kts | 58° |
| 2026-05-04 20:32 | 57.09681 | 23.39435 | 6392 ft | 271 kts | 59° |
| 2026-05-04 20:33 | 57.10548 | 23.42334 | 6155 ft | 267 kts | 58° |
| 2026-05-04 20:33 | 57.11403 | 23.45197 | 5914 ft | 263 kts | 58° |
| 2026-05-04 20:33 | 57.12265 | 23.48078 | 5661 ft | 260 kts | 58° |
| 2026-05-04 20:33 | 57.13134 | 23.50992 | 5402 ft | 258 kts | 58° |
| 2026-05-04 20:34 | 57.13995 | 23.53886 | 5149 ft | 256 kts | 58° |
| 2026-05-04 20:34 | 57.14849 | 23.56770 | 4910 ft | 255 kts | 58° |
| 2026-05-04 20:34 | 57.15643 | 23.59461 | 4776 ft | 253 kts | 58° |
| 2026-05-04 20:34 | 57.16486 | 23.62320 | 4654 ft | 253 kts | 59° |
| 2026-05-04 20:35 | 57.17329 | 23.65176 | 4521 ft | 253 kts | 59° |
| 2026-05-04 20:35 | 57.18171 | 23.68033 | 4388 ft | 253 kts | 59° |
| 2026-05-04 20:35 | 57.19004 | 23.70861 | 4263 ft | 253 kts | 59° |
| 2026-05-04 20:35 | 57.19842 | 23.73705 | 4144 ft | 252 kts | 59° |
| 2026-05-04 20:36 | 57.20596 | 23.76566 | 3996 ft | 244 kts | 74° |
| 2026-05-04 20:36 | 57.20504 | 23.79575 | 3878 ft | 233 kts | 115° |
| 2026-05-04 20:36 | 57.19801 | 23.82181 | 3754 ft | 225 kts | 120° |
| 2026-05-04 20:36 | 57.19083 | 23.84723 | 3617 ft | 220 kts | 120° |
| 2026-05-04 20:37 | 57.18382 | 23.87182 | 3488 ft | 216 kts | 121° |
| 2026-05-04 20:37 | 57.17625 | 23.89564 | 3361 ft | 213 kts | 125° |
| 2026-05-04 20:37 | 57.16831 | 23.91815 | 3235 ft | 210 kts | 126° |
| 2026-05-04 20:37 | 57.16029 | 23.94031 | 3136 ft | 204 kts | 127° |
| 2026-05-04 20:38 | 57.15244 | 23.96200 | 3007 ft | 203 kts | 127° |
| 2026-05-04 20:38 | 57.14461 | 23.98353 | 2870 ft | 204 kts | 127° |
| 2026-05-04 20:38 | 57.13661 | 24.00517 | 2733 ft | 203 kts | 132° |
| 2026-05-04 20:38 | 57.12543 | 24.01822 | 2605 ft | 188 kts | 182° |
| 2026-05-04 20:39 | 57.11282 | 24.01512 | 2565 ft | 183 kts | 199° |
| 2026-05-04 20:39 | 57.10047 | 24.01048 | 2531 ft | 183 kts | 196° |
| 2026-05-04 20:39 | 57.08770 | 24.00728 | 2505 ft | 185 kts | 193° |
| 2026-05-04 20:39 | 57.07497 | 24.00482 | 2493 ft | 186 kts | 192° |
| 2026-05-04 20:40 | 57.06211 | 24.00207 | 2482 ft | 184 kts | 195° |
| 2026-05-04 20:40 | 57.04951 | 23.99858 | 2480 ft | 185 kts | 195° |
| 2026-05-04 20:40 | 57.03673 | 23.99487 | 2364 ft | 186 kts | 195° |
| 2026-05-04 20:40 | 57.02392 | 23.99103 | 2067 ft | 184 kts | 195° |
| 2026-05-04 20:41 | 57.01138 | 23.98719 | 1756 ft | 179 kts | 195° |
| 2026-05-04 20:41 | 56.99974 | 23.98439 | 1514 ft | 163 kts | 193° |
| 2026-05-04 20:41 | 56.98864 | 23.98167 | 1115 ft | 157 kts | 190° |
| 2026-05-04 20:41 | 56.97788 | 23.98106 | 825 ft | 151 kts | 186° |
| 2026-05-04 20:42 | 56.96780 | 23.97933 | 630 ft | 143 kts | 190° |
| 2026-05-04 20:42 | 56.95816 | 23.97683 | 427 ft | 136 kts | 187° |
| 2026-05-04 20:42 | 56.94881 | 23.97558 | 288 ft | 135 kts | 187° |
| 2026-05-04 20:42 | 56.93957 | 23.97386 | 132 ft | 131 kts | 187° |
| 2026-05-04 20:43 | 56.93074 | 23.97237 | 46 ft | 124 kts | 188° |
| 2026-05-04 20:43 | 56.92329 | 23.97102 | 44 ft | 82 kts | 184° |
| 2026-05-04 20:43 | 56.92055 | 23.97065 | 44 ft | 33 kts | 182° |
| 2026-05-04 20:43 | 56.91822 | 23.97131 | 45 ft | 34 kts | 158° |
| 2026-05-04 20:44 | 56.91717 | 23.97344 | 45 ft | 16 kts | 77° |
| 2026-05-04 20:44 | 56.91772 | 23.97412 | 45 ft | 16 kts | 7° |
| 2026-05-04 20:44 | 56.91888 | 23.97432 | 45 ft | 18 kts | 3° |
| 2026-05-04 20:44 | 56.92015 | 23.97444 | 45 ft | 19 kts | 3° |
| 2026-05-04 20:45 | 56.92096 | 23.97457 | 45 ft | 0 kts | 5° |
| 2026-05-04 20:45 | 56.92100 | 23.97457 | 45 ft | 2 kts | 5° |
| 2026-05-04 20:45 | 56.92119 | 23.97471 | 45 ft | 4 kts | 36° |
| 2026-05-04 20:45 | 56.92133 | 23.97528 | 45 ft | 6 kts | 72° |
| 2026-05-04 20:46 | 56.92160 | 23.97574 | 45 ft | 6 kts | 18° |
| 2026-05-04 20:46 | 56.92185 | 23.97582 | 42 ft | 3 kts | 5° |
| 2026-05-04 20:46 | 56.92193 | 23.97583 | 43 ft | 0 kts | 5° |